createdAt,value
2022-12-25T00:00:43.793Z,986.23
2022-12-25T00:01:43.784Z,986.19
2022-12-25T00:02:43.892Z,986.12
2022-12-25T00:03:43.834Z,986.05
2022-12-25T00:04:43.721Z,986.04
2022-12-25T00:05:43.726Z,986.06
2022-12-25T00:06:43.681Z,986.10
2022-12-25T00:07:43.711Z,986.10
2022-12-25T00:08:43.684Z,986.09
2022-12-25T00:09:43.670Z,986.12
2022-12-25T00:10:45.574Z,986.22
2022-12-25T00:11:43.651Z,986.16
2022-12-25T00:12:43.631Z,986.18
2022-12-25T00:13:43.614Z,986.10
2022-12-25T00:14:43.623Z,986.15
2022-12-25T00:15:43.592Z,986.16
2022-12-25T00:16:43.630Z,986.18
2022-12-25T00:17:43.594Z,986.20
2022-12-25T00:18:43.563Z,986.20
2022-12-25T00:19:43.606Z,986.22
2022-12-25T00:20:43.538Z,986.24
2022-12-25T00:21:43.537Z,986.21
2022-12-25T00:22:43.531Z,986.18
2022-12-25T00:23:43.525Z,986.18
2022-12-25T00:24:43.501Z,986.15
2022-12-25T00:25:43.502Z,986.15
2022-12-25T00:26:43.497Z,986.22
2022-12-25T00:27:43.472Z,986.17
2022-12-25T00:28:43.473Z,986.15
2022-12-25T00:29:43.458Z,986.13
2022-12-25T00:30:43.434Z,986.18
2022-12-25T00:31:43.555Z,986.19
2022-12-25T00:32:43.444Z,986.16
2022-12-25T00:33:43.396Z,986.15
2022-12-25T00:34:43.441Z,986.14
2022-12-25T00:35:43.385Z,986.05
2022-12-25T00:36:43.419Z,986.05
2022-12-25T00:37:43.375Z,986.02
2022-12-25T00:38:43.374Z,986.02
2022-12-25T00:39:43.336Z,986.03
2022-12-25T00:40:43.344Z,986.08
2022-12-25T00:41:43.328Z,986.06
2022-12-25T00:42:43.340Z,986.13
2022-12-25T00:43:43.313Z,986.09
2022-12-25T00:44:43.285Z,986.13
2022-12-25T00:45:43.344Z,986.11
2022-12-25T00:46:43.307Z,986.14
2022-12-25T00:47:43.267Z,986.12
2022-12-25T00:48:43.251Z,986.12
2022-12-25T00:49:43.251Z,986.15
2022-12-25T00:50:43.286Z,986.16
2022-12-25T00:51:43.212Z,986.13
2022-12-25T00:52:43.220Z,986.09
2022-12-25T00:53:43.186Z,986.18
2022-12-25T00:54:43.198Z,986.15
2022-12-25T00:55:43.175Z,986.18
2022-12-25T00:56:43.167Z,986.16
2022-12-25T00:57:43.161Z,986.20
2022-12-25T00:58:43.136Z,986.14
2022-12-25T00:59:43.141Z,986.21
2022-12-25T01:00:43.164Z,986.16
2022-12-25T01:01:43.360Z,986.13
2022-12-25T01:02:43.286Z,986.14
2022-12-25T01:03:43.089Z,986.14
2022-12-25T01:04:43.080Z,986.09
2022-12-25T01:05:43.059Z,986.06
2022-12-25T01:06:43.053Z,986.09
2022-12-25T01:07:43.060Z,986.09
2022-12-25T01:08:43.041Z,986.09
2022-12-25T01:09:43.041Z,986.16
2022-12-25T01:10:43.004Z,986.15
2022-12-25T01:11:43.003Z,986.16
2022-12-25T01:12:42.988Z,986.17
2022-12-25T01:13:42.981Z,986.18
2022-12-25T01:14:42.982Z,986.17
2022-12-25T01:15:42.948Z,986.17
2022-12-25T01:16:43.026Z,986.18
2022-12-25T01:17:42.940Z,986.12
2022-12-25T01:18:42.945Z,986.18
2022-12-25T01:19:42.912Z,986.21
2022-12-25T01:20:42.900Z,986.21
2022-12-25T01:21:42.902Z,986.22
2022-12-25T01:22:42.913Z,986.28
2022-12-25T01:23:42.871Z,986.27
2022-12-25T01:24:42.858Z,986.25
2022-12-25T01:25:42.864Z,986.27
2022-12-25T01:26:42.865Z,986.30
2022-12-25T01:27:42.864Z,986.25
2022-12-25T01:28:42.839Z,986.28
2022-12-25T01:29:42.812Z,986.24
2022-12-25T01:30:42.804Z,986.23
2022-12-25T01:31:42.833Z,986.27
2022-12-25T01:32:42.799Z,986.27
2022-12-25T01:33:42.773Z,986.29
2022-12-25T01:34:42.765Z,986.31
2022-12-25T01:35:42.758Z,986.32
2022-12-25T01:36:42.745Z,986.33
2022-12-25T01:37:42.737Z,986.39
2022-12-25T01:38:42.716Z,986.36
2022-12-25T01:39:42.695Z,986.41
2022-12-25T01:40:42.704Z,986.44
2022-12-25T01:41:42.695Z,986.44
2022-12-25T01:42:42.665Z,986.42
2022-12-25T01:43:42.666Z,986.45
2022-12-25T01:44:42.655Z,986.49
2022-12-25T01:45:42.713Z,986.45
2022-12-25T01:46:42.639Z,986.48
2022-12-25T01:47:42.629Z,986.46
2022-12-25T01:48:42.617Z,986.42
2022-12-25T01:49:42.600Z,986.37
2022-12-25T01:50:42.615Z,986.35
2022-12-25T01:51:42.568Z,986.33
2022-12-25T01:52:42.559Z,986.40
2022-12-25T01:53:42.557Z,986.33
2022-12-25T01:54:42.535Z,986.41
2022-12-25T01:55:42.536Z,986.32
2022-12-25T01:56:42.527Z,986.36
2022-12-25T01:57:42.498Z,986.29
2022-12-25T01:58:42.505Z,986.26
2022-12-25T01:59:42.506Z,986.33
2022-12-25T02:00:42.513Z,986.26
2022-12-25T02:01:42.603Z,986.30
2022-12-25T02:02:42.583Z,986.33
2022-12-25T02:03:42.499Z,986.28
2022-12-25T02:04:42.455Z,986.17
2022-12-25T02:05:42.449Z,986.27
2022-12-25T02:06:42.420Z,986.22
2022-12-25T02:07:42.427Z,986.31
2022-12-25T02:08:42.387Z,986.28
2022-12-25T02:09:42.394Z,986.25
2022-12-25T02:10:42.381Z,986.35
2022-12-25T02:11:42.364Z,986.33
2022-12-25T02:12:42.388Z,986.35
2022-12-25T02:13:42.359Z,986.23
2022-12-25T02:14:42.335Z,986.21
2022-12-25T02:15:42.312Z,986.24
2022-12-25T02:16:58.305Z,986.26
2022-12-25T02:17:43.323Z,986.37
2022-12-25T02:18:42.297Z,986.36
2022-12-25T02:19:42.270Z,986.24
2022-12-25T02:20:42.263Z,986.29
2022-12-25T02:21:42.264Z,986.26
2022-12-25T02:22:42.230Z,986.27
2022-12-25T02:23:42.248Z,986.33
2022-12-25T02:24:42.214Z,986.28
2022-12-25T02:25:42.213Z,986.28
2022-12-25T02:26:42.218Z,986.23
2022-12-25T02:27:42.227Z,986.21
2022-12-25T02:28:45.736Z,986.21
2022-12-25T02:29:42.177Z,986.21
2022-12-25T02:30:42.162Z,986.18
2022-12-25T02:31:42.190Z,986.22
2022-12-25T02:32:42.147Z,986.18
2022-12-25T02:33:42.154Z,986.18
2022-12-25T02:34:42.126Z,986.14
2022-12-25T02:35:42.116Z,986.16
2022-12-25T02:36:42.106Z,986.18
2022-12-25T02:37:42.097Z,986.17
2022-12-25T02:38:42.068Z,986.22
2022-12-25T02:39:42.096Z,986.19
2022-12-25T02:40:42.052Z,986.21
2022-12-25T02:41:42.054Z,986.16
2022-12-25T02:42:42.043Z,986.21
2022-12-25T02:43:42.028Z,986.11
2022-12-25T02:44:42.020Z,986.12
2022-12-25T02:45:42.079Z,986.11
2022-12-25T02:46:41.998Z,986.12
2022-12-25T02:47:41.988Z,986.09
2022-12-25T02:48:41.990Z,986.10
2022-12-25T02:49:41.994Z,986.13
2022-12-25T02:50:41.939Z,986.14
2022-12-25T02:51:41.945Z,986.19
2022-12-25T02:52:41.927Z,986.17
2022-12-25T02:53:41.936Z,986.17
2022-12-25T02:54:41.912Z,986.19
2022-12-25T02:55:41.900Z,986.19
2022-12-25T02:56:41.890Z,986.13
2022-12-25T02:57:41.873Z,986.15
2022-12-25T02:58:41.855Z,986.15
2022-12-25T02:59:41.868Z,986.14
2022-12-25T03:00:41.868Z,986.22
2022-12-25T03:01:42.034Z,986.20
2022-12-25T03:02:41.836Z,986.27
2022-12-25T03:03:41.854Z,986.28
2022-12-25T03:04:41.802Z,986.25
2022-12-25T03:05:41.800Z,986.22
2022-12-25T03:06:41.792Z,986.15
2022-12-25T03:07:41.762Z,986.18
2022-12-25T03:08:41.759Z,986.14
2022-12-25T03:09:41.773Z,986.18
2022-12-25T03:10:41.732Z,986.04
2022-12-25T03:11:41.723Z,986.11
2022-12-25T03:12:41.700Z,986.06
2022-12-25T03:13:41.714Z,986.13
2022-12-25T03:14:41.714Z,986.13
2022-12-25T03:15:41.683Z,986.11
2022-12-25T03:16:41.770Z,986.13
2022-12-25T03:17:41.676Z,986.11
2022-12-25T03:18:41.665Z,986.10
2022-12-25T03:19:41.660Z,986.10
2022-12-25T03:20:41.625Z,986.12
2022-12-25T03:21:41.622Z,986.07
2022-12-25T03:22:41.615Z,986.09
2022-12-25T03:23:41.609Z,986.04
2022-12-25T03:24:41.586Z,986.07
2022-12-25T03:25:41.576Z,986.02
2022-12-25T03:26:41.574Z,985.97
2022-12-25T03:27:41.564Z,985.94
2022-12-25T03:28:41.563Z,985.93
2022-12-25T03:29:41.539Z,985.92
2022-12-25T03:30:41.561Z,985.92
2022-12-25T03:31:41.518Z,985.84
2022-12-25T03:32:41.506Z,985.90
2022-12-25T03:33:45.719Z,985.84
2022-12-25T03:34:41.468Z,985.85
2022-12-25T03:35:41.468Z,985.83
2022-12-25T03:36:41.447Z,985.81
2022-12-25T03:37:41.456Z,985.85
2022-12-25T03:38:41.457Z,985.84
2022-12-25T03:39:41.425Z,985.87
2022-12-25T03:40:41.433Z,985.78
2022-12-25T03:41:41.429Z,985.84
2022-12-25T03:42:41.405Z,985.84
2022-12-25T03:43:41.397Z,985.82
2022-12-25T03:44:41.388Z,985.77
2022-12-25T03:45:41.371Z,985.78
2022-12-25T03:46:41.378Z,985.74
2022-12-25T03:47:41.349Z,985.75
2022-12-25T03:48:41.321Z,985.78
2022-12-25T03:49:41.314Z,985.74
2022-12-25T03:50:41.330Z,985.68
2022-12-25T03:51:41.312Z,985.70
2022-12-25T03:52:41.279Z,985.64
2022-12-25T03:53:41.295Z,985.66
2022-12-25T03:54:41.270Z,985.64
2022-12-25T03:55:41.274Z,985.66
2022-12-25T03:56:41.272Z,985.67
2022-12-25T03:57:41.242Z,985.63
2022-12-25T03:58:41.251Z,985.66
2022-12-25T03:59:41.227Z,985.64
2022-12-25T04:00:41.193Z,985.69
2022-12-25T04:01:41.362Z,985.72
2022-12-25T04:02:41.370Z,985.61
2022-12-25T04:03:41.252Z,985.63
2022-12-25T04:04:41.164Z,985.59
2022-12-25T04:05:41.167Z,985.55
2022-12-25T04:06:41.133Z,985.53
2022-12-25T04:07:41.152Z,985.56
2022-12-25T04:08:41.127Z,985.61
2022-12-25T04:09:41.116Z,985.59
2022-12-25T04:10:41.086Z,985.60
2022-12-25T04:11:41.119Z,985.72
2022-12-25T04:12:41.080Z,985.71
2022-12-25T04:13:41.066Z,985.66
2022-12-25T04:14:41.048Z,985.68
2022-12-25T04:15:41.098Z,985.70
2022-12-25T04:16:41.055Z,985.67
2022-12-25T04:17:41.021Z,985.67
2022-12-25T04:18:41.015Z,985.69
2022-12-25T04:19:41.008Z,985.68
2022-12-25T04:20:41.015Z,985.70
2022-12-25T04:21:40.986Z,985.71
2022-12-25T04:22:40.968Z,985.67
2022-12-25T04:23:40.970Z,985.69
2022-12-25T04:24:40.959Z,985.68
2022-12-25T04:25:40.957Z,985.65
2022-12-25T04:26:40.927Z,985.67
2022-12-25T04:27:40.934Z,985.65
2022-12-25T04:28:40.897Z,985.62
2022-12-25T04:29:40.906Z,985.64
2022-12-25T04:30:40.888Z,985.62
2022-12-25T04:31:40.999Z,985.56
2022-12-25T04:32:40.859Z,985.52
2022-12-25T04:33:40.858Z,985.49
2022-12-25T04:34:40.853Z,985.50
2022-12-25T04:35:40.827Z,985.47
2022-12-25T04:36:40.869Z,985.52
2022-12-25T04:37:40.818Z,985.54
2022-12-25T04:38:40.791Z,985.52
2022-12-25T04:39:40.781Z,985.50
2022-12-25T04:40:40.784Z,985.54
2022-12-25T04:41:40.781Z,985.54
2022-12-25T04:42:40.751Z,985.52
2022-12-25T04:43:40.755Z,985.55
2022-12-25T04:44:40.739Z,985.60
2022-12-25T04:45:40.732Z,985.57
2022-12-25T04:46:40.768Z,985.61
2022-12-25T04:47:40.731Z,985.57
2022-12-25T04:48:40.711Z,985.54
2022-12-25T04:49:40.689Z,985.48
2022-12-25T04:50:40.682Z,985.54
2022-12-25T04:51:40.659Z,985.57
2022-12-25T04:52:40.767Z,985.46
2022-12-25T04:53:40.641Z,985.52
2022-12-25T04:54:40.622Z,985.53
2022-12-25T04:55:40.623Z,985.52
2022-12-25T04:56:45.595Z,985.47
2022-12-25T04:57:41.606Z,985.52
2022-12-25T04:58:40.601Z,985.50
2022-12-25T04:59:40.597Z,985.46
2022-12-25T05:00:40.582Z,985.39
2022-12-25T05:01:40.763Z,985.40
2022-12-25T05:02:40.862Z,985.45
2022-12-25T05:03:40.687Z,985.49
2022-12-25T05:04:40.526Z,985.51
2022-12-25T05:05:40.519Z,985.44
2022-12-25T05:06:40.497Z,985.39
2022-12-25T05:07:40.494Z,985.39
2022-12-25T05:08:40.474Z,985.37
2022-12-25T05:09:40.475Z,985.35
2022-12-25T05:10:40.500Z,985.31
2022-12-25T05:11:40.454Z,985.33
2022-12-25T05:12:40.433Z,985.28
2022-12-25T05:13:40.446Z,985.27
2022-12-25T05:14:40.435Z,985.27
2022-12-25T05:15:40.429Z,985.29
2022-12-25T05:16:40.417Z,985.22
2022-12-25T05:17:40.386Z,985.23
2022-12-25T05:18:40.396Z,985.20
2022-12-25T05:19:40.378Z,985.28
2022-12-25T05:20:40.635Z,985.25
2022-12-25T05:21:40.348Z,985.16
2022-12-25T05:22:40.355Z,985.24
2022-12-25T05:23:40.325Z,985.23
2022-12-25T05:24:40.316Z,985.25
2022-12-25T05:25:40.303Z,985.34
2022-12-25T05:26:40.324Z,985.23
2022-12-25T05:27:40.287Z,985.35
2022-12-25T05:28:40.265Z,985.29
2022-12-25T05:29:40.252Z,985.30
2022-12-25T05:30:40.268Z,985.29
2022-12-25T05:31:40.334Z,985.31
2022-12-25T05:32:40.220Z,985.34
2022-12-25T05:33:40.208Z,985.24
2022-12-25T05:34:40.205Z,985.32
2022-12-25T05:35:40.210Z,985.29
2022-12-25T05:36:40.221Z,985.27
2022-12-25T05:37:40.198Z,985.29
2022-12-25T05:38:40.159Z,985.27
2022-12-25T05:39:40.149Z,985.28
2022-12-25T05:40:40.144Z,985.26
2022-12-25T05:41:40.119Z,985.22
2022-12-25T05:42:40.150Z,985.25
2022-12-25T05:43:40.090Z,985.31
2022-12-25T05:44:40.098Z,985.26
2022-12-25T05:45:40.099Z,985.16
2022-12-25T05:46:40.121Z,985.14
2022-12-25T05:47:40.051Z,985.19
2022-12-25T05:48:40.104Z,985.13
2022-12-25T05:49:40.062Z,985.07
2022-12-25T05:50:40.030Z,985.10
2022-12-25T05:51:40.031Z,985.02
2022-12-25T05:52:40.021Z,984.96
2022-12-25T05:53:40.016Z,984.95
2022-12-25T05:54:39.984Z,984.97
2022-12-25T05:55:39.990Z,984.96
2022-12-25T05:56:39.976Z,984.93
2022-12-25T05:57:39.950Z,984.98
2022-12-25T05:58:39.968Z,984.99
2022-12-25T05:59:39.922Z,984.97
2022-12-25T06:00:39.928Z,984.94
2022-12-25T06:01:39.978Z,984.95
2022-12-25T06:02:40.225Z,984.94
2022-12-25T06:03:40.007Z,984.97
2022-12-25T06:04:39.885Z,984.98
2022-12-25T06:05:39.886Z,984.84
2022-12-25T06:06:39.863Z,984.79
2022-12-25T06:07:39.842Z,984.84
2022-12-25T06:08:40.763Z,984.88
2022-12-25T06:09:39.832Z,984.79
2022-12-25T06:10:39.813Z,984.78
2022-12-25T06:11:39.798Z,984.81
2022-12-25T06:12:39.804Z,984.80
2022-12-25T06:13:39.792Z,984.83
2022-12-25T06:14:39.784Z,984.89
2022-12-25T06:15:39.774Z,984.92
2022-12-25T06:16:39.875Z,984.84
2022-12-25T06:17:39.742Z,984.88
2022-12-25T06:18:39.745Z,984.91
2022-12-25T06:19:39.731Z,984.83
2022-12-25T06:20:39.723Z,984.86
2022-12-25T06:21:39.718Z,984.85
2022-12-25T06:22:39.707Z,984.80
2022-12-25T06:23:39.815Z,984.87
2022-12-25T06:24:39.681Z,984.82
2022-12-25T06:25:39.697Z,984.82
2022-12-25T06:26:39.648Z,984.79
2022-12-25T06:27:39.645Z,984.82
2022-12-25T06:28:39.663Z,984.77
2022-12-25T06:29:39.635Z,984.77
2022-12-25T06:30:39.613Z,984.75
2022-12-25T06:31:39.629Z,984.73
2022-12-25T06:32:39.591Z,984.77
2022-12-25T06:33:39.569Z,984.78
2022-12-25T06:34:39.566Z,984.74
2022-12-25T06:35:39.580Z,984.73
2022-12-25T06:36:39.553Z,984.70
2022-12-25T06:37:39.522Z,984.68
2022-12-25T06:38:39.551Z,984.68
2022-12-25T06:39:39.496Z,984.73
2022-12-25T06:40:39.508Z,984.73
2022-12-25T06:41:39.491Z,984.75
2022-12-25T06:42:39.481Z,984.76
2022-12-25T06:43:39.468Z,984.75
2022-12-25T06:44:39.449Z,984.73
2022-12-25T06:45:39.447Z,984.73
2022-12-25T06:46:39.445Z,984.77
2022-12-25T06:47:39.423Z,984.71
2022-12-25T06:48:39.429Z,984.75
2022-12-25T06:49:39.395Z,984.76
2022-12-25T06:50:39.380Z,984.79
2022-12-25T06:51:39.380Z,984.77
2022-12-25T06:52:39.378Z,984.81
2022-12-25T06:53:40.278Z,984.86
2022-12-25T06:54:39.363Z,984.86
2022-12-25T06:55:39.327Z,984.81
2022-12-25T06:56:39.330Z,984.88
2022-12-25T06:57:39.325Z,984.91
2022-12-25T06:58:39.325Z,984.94
2022-12-25T06:59:39.284Z,984.93
2022-12-25T07:00:39.367Z,984.94
2022-12-25T07:01:39.494Z,984.96
2022-12-25T07:02:39.396Z,984.87
2022-12-25T07:03:39.265Z,984.91
2022-12-25T07:04:39.261Z,984.87
2022-12-25T07:05:39.232Z,984.89
2022-12-25T07:06:39.212Z,984.89
2022-12-25T07:07:39.230Z,984.85
2022-12-25T07:08:39.210Z,984.91
2022-12-25T07:09:39.457Z,984.85
2022-12-25T07:10:39.186Z,984.92
2022-12-25T07:11:39.162Z,984.85
2022-12-25T07:12:39.201Z,984.88
2022-12-25T07:13:39.160Z,984.94
2022-12-25T07:14:39.153Z,984.99
2022-12-25T07:15:39.123Z,985.01
2022-12-25T07:16:39.168Z,985.10
2022-12-25T07:17:39.108Z,985.12
2022-12-25T07:18:39.104Z,985.06
2022-12-25T07:19:44.683Z,985.05
2022-12-25T07:20:40.066Z,985.05
2022-12-25T07:21:39.052Z,985.07
2022-12-25T07:22:39.044Z,985.02
2022-12-25T07:23:39.068Z,984.96
2022-12-25T07:24:39.035Z,984.95
2022-12-25T07:25:39.008Z,985.00
2022-12-25T07:26:38.995Z,984.92
2022-12-25T07:27:38.989Z,984.88
2022-12-25T07:28:39.006Z,984.92
2022-12-25T07:29:39.006Z,984.93
2022-12-25T07:30:38.971Z,984.90
2022-12-25T07:31:38.999Z,984.88
2022-12-25T07:32:38.977Z,984.87
2022-12-25T07:33:38.947Z,984.84
2022-12-25T07:34:38.922Z,984.78
2022-12-25T07:35:38.904Z,984.74
2022-12-25T07:36:38.912Z,984.75
2022-12-25T07:37:38.908Z,984.69
2022-12-25T07:38:38.917Z,984.74
2022-12-25T07:39:38.867Z,984.68
2022-12-25T07:40:38.863Z,984.65
2022-12-25T07:41:38.857Z,984.70
2022-12-25T07:42:38.836Z,984.58
2022-12-25T07:43:38.829Z,984.56
2022-12-25T07:44:38.821Z,984.55
2022-12-25T07:45:38.824Z,984.50
2022-12-25T07:46:38.805Z,984.43
2022-12-25T07:47:38.778Z,984.48
2022-12-25T07:48:38.830Z,984.46
2022-12-25T07:49:38.781Z,984.49
2022-12-25T07:50:38.763Z,984.47
2022-12-25T07:51:38.737Z,984.44
2022-12-25T07:52:43.493Z,984.49
2022-12-25T07:53:39.739Z,984.46
2022-12-25T07:54:38.738Z,984.46
2022-12-25T07:55:38.689Z,984.49
2022-12-25T07:56:38.690Z,984.47
2022-12-25T07:57:38.689Z,984.50
2022-12-25T07:58:38.669Z,984.49
2022-12-25T07:59:38.669Z,984.57
2022-12-25T08:00:38.678Z,984.60
2022-12-25T08:01:38.846Z,984.60
2022-12-25T08:02:38.715Z,984.61
2022-12-25T08:03:38.779Z,984.61
2022-12-25T08:04:38.611Z,984.60
2022-12-25T08:05:38.600Z,984.59
2022-12-25T08:06:38.591Z,984.63
2022-12-25T08:07:38.563Z,984.66
2022-12-25T08:08:38.575Z,984.62
2022-12-25T08:09:38.570Z,984.68
2022-12-25T08:10:38.545Z,984.71
2022-12-25T08:11:38.520Z,984.74
2022-12-25T08:12:38.510Z,984.75
2022-12-25T08:13:38.523Z,984.76
2022-12-25T08:14:38.536Z,984.79
2022-12-25T08:15:38.473Z,984.87
2022-12-25T08:16:38.525Z,984.85
2022-12-25T08:17:38.480Z,984.85
2022-12-25T08:18:38.459Z,984.89
2022-12-25T08:19:38.457Z,984.80
2022-12-25T08:20:38.441Z,984.80
2022-12-25T08:21:38.459Z,984.82
2022-12-25T08:22:38.420Z,984.84
2022-12-25T08:23:38.397Z,984.81
2022-12-25T08:24:38.387Z,984.86
2022-12-25T08:25:38.407Z,984.92
2022-12-25T08:26:38.395Z,984.92
2022-12-25T08:27:38.344Z,984.89
2022-12-25T08:28:38.339Z,984.90
2022-12-25T08:29:38.323Z,984.83
2022-12-25T08:30:38.344Z,984.84
2022-12-25T08:31:44.129Z,984.76
2022-12-25T08:32:39.309Z,984.76
2022-12-25T08:33:38.314Z,984.80
2022-12-25T08:34:38.281Z,984.82
2022-12-25T08:35:38.277Z,984.81
2022-12-25T08:36:38.278Z,984.79
2022-12-25T08:37:38.237Z,984.81
2022-12-25T08:38:38.246Z,984.84
2022-12-25T08:39:38.221Z,984.88
2022-12-25T08:40:38.246Z,984.85
2022-12-25T08:41:38.209Z,984.87
2022-12-25T08:42:38.213Z,984.80
2022-12-25T08:43:38.186Z,984.78
2022-12-25T08:44:38.197Z,984.84
2022-12-25T08:45:38.165Z,984.81
2022-12-25T08:46:38.217Z,984.78
2022-12-25T08:47:38.133Z,984.79
2022-12-25T08:48:38.127Z,984.77
2022-12-25T08:49:38.120Z,984.77
2022-12-25T08:50:38.162Z,984.80
2022-12-25T08:51:38.108Z,984.77
2022-12-25T08:52:38.091Z,984.77
2022-12-25T08:53:38.079Z,984.74
2022-12-25T08:54:38.079Z,984.77
2022-12-25T08:55:38.067Z,984.80
2022-12-25T08:56:38.069Z,984.77
2022-12-25T08:57:38.021Z,984.77
2022-12-25T08:58:38.042Z,984.76
2022-12-25T08:59:38.028Z,984.77
2022-12-25T09:00:38.035Z,984.71
2022-12-25T09:01:38.073Z,984.67
2022-12-25T09:02:38.227Z,984.67
2022-12-25T09:03:37.996Z,984.63
2022-12-25T09:04:37.981Z,984.56
2022-12-25T09:05:37.950Z,984.56
2022-12-25T09:06:37.959Z,984.54
2022-12-25T09:07:37.944Z,984.42
2022-12-25T09:08:41.113Z,984.42
2022-12-25T09:09:38.914Z,984.45
2022-12-25T09:10:37.885Z,984.35
2022-12-25T09:11:37.911Z,984.23
2022-12-25T09:12:37.862Z,984.19
2022-12-25T09:13:37.853Z,984.16
2022-12-25T09:14:37.858Z,984.16
2022-12-25T09:15:37.919Z,984.16
2022-12-25T09:16:37.853Z,984.20
2022-12-25T09:17:37.814Z,984.27
2022-12-25T09:18:37.820Z,984.27
2022-12-25T09:19:37.806Z,984.33
2022-12-25T09:20:37.785Z,984.23
2022-12-25T09:21:37.827Z,984.35
2022-12-25T09:22:37.774Z,984.33
2022-12-25T09:23:37.775Z,984.40
2022-12-25T09:24:37.745Z,984.32
2022-12-25T09:25:37.743Z,984.42
2022-12-25T09:26:37.762Z,984.43
2022-12-25T09:27:37.729Z,984.43
2022-12-25T09:28:37.705Z,984.40
2022-12-25T09:29:37.695Z,984.44
2022-12-25T09:30:37.713Z,984.42
2022-12-25T09:31:37.669Z,984.49
2022-12-25T09:32:37.667Z,984.43
2022-12-25T09:33:37.656Z,984.40
2022-12-25T09:34:37.644Z,984.43
2022-12-25T09:35:37.623Z,984.45
2022-12-25T09:36:37.610Z,984.50
2022-12-25T09:37:37.626Z,984.48
2022-12-25T09:38:37.597Z,984.46
2022-12-25T09:39:43.858Z,984.42
2022-12-25T09:40:38.565Z,984.43
2022-12-25T09:41:37.575Z,984.47
2022-12-25T09:42:37.548Z,984.49
2022-12-25T09:43:37.555Z,984.43
2022-12-25T09:44:37.540Z,984.48
2022-12-25T09:45:37.525Z,984.40
2022-12-25T09:46:37.733Z,984.45
2022-12-25T09:47:37.507Z,984.47
2022-12-25T09:48:37.497Z,984.42
2022-12-25T09:49:37.475Z,984.46
2022-12-25T09:50:37.463Z,984.49
2022-12-25T09:51:37.465Z,984.50
2022-12-25T09:52:37.459Z,984.53
2022-12-25T09:53:37.454Z,984.54
2022-12-25T09:54:37.423Z,984.43
2022-12-25T09:55:37.409Z,984.42
2022-12-25T09:56:37.410Z,984.43
2022-12-25T09:57:37.400Z,984.44
2022-12-25T09:58:37.381Z,984.40
2022-12-25T09:59:37.371Z,984.41
2022-12-25T10:00:37.390Z,984.42
2022-12-25T10:01:37.458Z,984.42
2022-12-25T10:02:37.724Z,984.41
2022-12-25T10:03:37.384Z,984.43
2022-12-25T10:04:40.750Z,984.48
2022-12-25T10:05:37.348Z,984.44
2022-12-25T10:06:37.292Z,984.43
2022-12-25T10:07:37.292Z,984.38
2022-12-25T10:08:37.280Z,984.44
2022-12-25T10:09:37.273Z,984.41
2022-12-25T10:10:37.287Z,984.40
2022-12-25T10:11:37.266Z,984.38
2022-12-25T10:12:37.232Z,984.35
2022-12-25T10:13:37.241Z,984.26
2022-12-25T10:14:37.212Z,984.16
2022-12-25T10:15:40.542Z,984.21
2022-12-25T10:16:38.276Z,984.18
2022-12-25T10:17:37.173Z,984.18
2022-12-25T10:18:37.174Z,984.16
2022-12-25T10:19:37.173Z,984.14
2022-12-25T10:20:37.143Z,984.15
2022-12-25T10:21:37.141Z,984.07
2022-12-25T10:22:37.137Z,984.11
2022-12-25T10:23:37.126Z,984.07
2022-12-25T10:24:37.099Z,984.03
2022-12-25T10:25:37.104Z,984.03
2022-12-25T10:26:37.097Z,984.11
2022-12-25T10:27:37.078Z,984.02
2022-12-25T10:28:37.082Z,984.01
2022-12-25T10:29:37.065Z,984.05
2022-12-25T10:30:37.035Z,984.05
2022-12-25T10:31:37.163Z,984.03
2022-12-25T10:32:37.038Z,983.99
2022-12-25T10:33:37.016Z,983.96
2022-12-25T10:34:36.995Z,983.99
2022-12-25T10:35:36.999Z,983.98
2022-12-25T10:36:36.987Z,983.93
2022-12-25T10:37:36.983Z,983.92
2022-12-25T10:38:36.950Z,983.89
2022-12-25T10:39:41.001Z,983.86
2022-12-25T10:40:37.978Z,983.77
2022-12-25T10:41:36.941Z,983.72
2022-12-25T10:42:36.931Z,983.67
2022-12-25T10:43:36.930Z,983.71
2022-12-25T10:44:36.899Z,983.67
2022-12-25T10:45:36.881Z,983.66
2022-12-25T10:46:36.938Z,983.62
2022-12-25T10:47:36.875Z,983.64
2022-12-25T10:48:36.854Z,983.59
2022-12-25T10:49:36.860Z,983.59
2022-12-25T10:50:36.858Z,983.56
2022-12-25T10:51:36.815Z,983.59
2022-12-25T10:52:36.818Z,983.56
2022-12-25T10:53:36.811Z,983.52
2022-12-25T10:54:36.789Z,983.46
2022-12-25T10:55:36.801Z,983.52
2022-12-25T10:56:36.770Z,983.46
2022-12-25T10:57:36.751Z,983.45
2022-12-25T10:58:36.748Z,983.47
2022-12-25T10:59:36.731Z,983.54
2022-12-25T11:00:36.731Z,983.45
2022-12-25T11:01:36.852Z,983.48
2022-12-25T11:02:36.975Z,983.46
2022-12-25T11:03:36.791Z,983.41
2022-12-25T11:04:36.691Z,983.41
2022-12-25T11:05:36.701Z,983.38
2022-12-25T11:06:36.672Z,983.33
2022-12-25T11:07:36.659Z,983.31
2022-12-25T11:08:36.643Z,983.33
2022-12-25T11:09:36.624Z,983.32
2022-12-25T11:10:36.645Z,983.29
2022-12-25T11:11:36.615Z,983.27
2022-12-25T11:12:36.612Z,983.26
2022-12-25T11:13:36.625Z,983.26
2022-12-25T11:14:36.568Z,983.23
2022-12-25T11:15:36.665Z,983.27
2022-12-25T11:16:36.626Z,983.22
2022-12-25T11:17:36.536Z,983.29
2022-12-25T11:18:36.560Z,983.27
2022-12-25T11:19:36.534Z,983.31
2022-12-25T11:20:36.543Z,983.25
2022-12-25T11:21:36.518Z,983.21
2022-12-25T11:22:36.481Z,983.23
2022-12-25T11:23:36.485Z,983.23
2022-12-25T11:24:36.472Z,983.23
2022-12-25T11:25:36.466Z,983.27
2022-12-25T11:26:36.475Z,983.24
2022-12-25T11:27:36.436Z,983.20
2022-12-25T11:28:36.426Z,983.20
2022-12-25T11:29:36.413Z,983.23
2022-12-25T11:30:36.406Z,983.12
2022-12-25T11:31:36.542Z,983.13
2022-12-25T11:32:36.377Z,983.12
2022-12-25T11:33:36.378Z,983.09
2022-12-25T11:34:36.359Z,983.07
2022-12-25T11:35:36.346Z,983.07
2022-12-25T11:36:36.328Z,983.12
2022-12-25T11:37:36.349Z,983.04
2022-12-25T11:38:36.327Z,982.95
2022-12-25T11:39:36.319Z,983.01
2022-12-25T11:40:36.291Z,983.00
2022-12-25T11:41:36.308Z,982.98
2022-12-25T11:42:36.297Z,982.95
2022-12-25T11:43:36.255Z,982.99
2022-12-25T11:44:36.249Z,983.01
2022-12-25T11:45:36.251Z,982.96
2022-12-25T11:46:36.258Z,983.00
2022-12-25T11:47:36.221Z,982.94
2022-12-25T11:48:36.205Z,982.91
2022-12-25T11:49:36.200Z,982.82
2022-12-25T11:50:36.204Z,982.88
2022-12-25T11:51:36.182Z,982.79
2022-12-25T11:52:36.178Z,982.82
2022-12-25T11:53:36.186Z,982.75
2022-12-25T11:54:36.132Z,982.70
2022-12-25T11:55:36.141Z,982.73
2022-12-25T11:56:36.133Z,982.72
2022-12-25T11:57:36.121Z,982.63
2022-12-25T11:58:36.116Z,982.64
2022-12-25T11:59:36.097Z,982.59
2022-12-25T12:00:36.091Z,982.57
2022-12-25T12:01:36.189Z,982.51
2022-12-25T12:02:36.172Z,982.51
2022-12-25T12:03:36.109Z,982.55
2022-12-25T12:04:42.381Z,982.49
2022-12-25T12:05:37.033Z,982.43
2022-12-25T12:06:36.014Z,982.50
2022-12-25T12:07:36.022Z,982.40
2022-12-25T12:08:35.986Z,982.32
2022-12-25T12:09:35.977Z,982.33
2022-12-25T12:10:35.978Z,982.28
2022-12-25T12:11:35.960Z,982.23
2022-12-25T12:12:35.969Z,982.05
2022-12-25T12:13:35.938Z,982.09
2022-12-25T12:14:35.920Z,982.05
2022-12-25T12:15:35.924Z,982.03
2022-12-25T12:16:35.944Z,981.97
2022-12-25T12:17:35.897Z,981.97
2022-12-25T12:18:35.896Z,982.04
2022-12-25T12:19:35.870Z,982.08
2022-12-25T12:20:35.888Z,981.99
2022-12-25T12:21:35.861Z,981.98
2022-12-25T12:22:35.860Z,981.92
2022-12-25T12:23:35.868Z,981.95
2022-12-25T12:24:35.811Z,981.91
2022-12-25T12:25:35.828Z,981.89
2022-12-25T12:26:35.837Z,981.86
2022-12-25T12:27:35.806Z,981.81
2022-12-25T12:28:35.814Z,981.81